createdAt,value
2017-03-30T00:06:19.215Z,0
2017-03-30T00:16:19.173Z,0
2017-03-30T00:26:19.455Z,0
2017-03-30T00:36:19.209Z,0
2017-03-30T00:46:19.144Z,0
2017-03-30T00:56:19.232Z,0
2017-03-30T01:06:19.200Z,0
2017-03-30T01:16:19.148Z,0
2017-03-30T01:26:19.331Z,0
2017-03-30T01:36:19.225Z,0
2017-03-30T01:46:19.237Z,0
2017-03-30T01:56:19.180Z,0
2017-03-30T02:06:19.158Z,0
2017-03-30T02:16:19.252Z,0
2017-03-30T02:26:19.194Z,0
2017-03-30T02:36:19.161Z,0
2017-03-30T02:46:19.184Z,0
2017-03-30T02:56:19.161Z,0
2017-03-30T03:06:19.238Z,0
2017-03-30T03:16:19.118Z,0
2017-03-30T03:26:19.142Z,0
2017-03-30T03:36:19.227Z,0
2017-03-30T03:46:19.161Z,0
2017-03-30T03:56:19.236Z,0
2017-03-30T04:06:19.188Z,0
2017-03-30T04:16:19.159Z,0
2017-03-30T04:26:19.222Z,0
2017-03-30T04:36:19.162Z,0
2017-03-30T04:46:19.168Z,0
2017-03-30T04:56:20.283Z,12
2017-03-30T05:06:19.371Z,52
2017-03-30T05:16:19.254Z,128
2017-03-30T05:26:19.222Z,316
2017-03-30T05:36:19.135Z,528
2017-03-30T05:46:19.222Z,684
2017-03-30T05:56:19.196Z,1244
2017-03-30T06:06:19.126Z,1656
2017-03-30T06:16:19.113Z,2148
2017-03-30T06:26:19.103Z,3116
2017-03-30T06:36:19.161Z,5604
2017-03-30T06:46:19.122Z,6088
2017-03-30T06:56:19.110Z,5216
2017-03-30T07:06:19.103Z,9932
2017-03-30T07:16:19.099Z,8440
2017-03-30T07:26:19.116Z,10836
2017-03-30T07:36:19.130Z,9592
2017-03-30T07:46:19.135Z,10844
2017-03-30T07:56:19.126Z,10316
2017-03-30T08:06:19.185Z,6064
2017-03-30T08:16:19.124Z,6852
2017-03-30T08:26:19.111Z,6780
2017-03-30T08:36:19.124Z,8356
2017-03-30T08:46:19.231Z,11508
2017-03-30T08:56:19.212Z,16116
2017-03-30T09:06:19.141Z,11376
2017-03-30T09:16:19.200Z,8704
2017-03-30T09:26:19.173Z,11872
2017-03-30T09:36:19.274Z,12608
2017-03-30T09:46:19.203Z,13956
2017-03-30T09:56:19.144Z,10456
2017-03-30T10:06:19.241Z,5636
2017-03-30T10:16:19.179Z,5284
2017-03-30T10:26:19.238Z,5544
2017-03-30T10:36:19.197Z,5504
2017-03-30T10:46:19.187Z,6172
2017-03-30T10:56:19.253Z,6940
2017-03-30T11:16:19.269Z,6428
2017-03-30T11:26:19.224Z,7012
2017-03-30T11:36:19.193Z,8048
2017-03-30T11:46:19.271Z,6276
2017-03-30T11:56:19.190Z,8688
2017-03-30T12:06:19.268Z,6916
2017-03-30T12:16:19.240Z,6020
2017-03-30T12:26:19.157Z,7792
2017-03-30T12:36:19.259Z,7064
2017-03-30T12:46:19.191Z,6176
2017-03-30T12:56:19.178Z,7300
2017-03-30T13:06:19.184Z,9288
2017-03-30T13:16:19.181Z,11640
2017-03-30T13:26:19.179Z,7312
2017-03-30T13:36:19.214Z,7580
2017-03-30T13:46:19.290Z,9268
2017-03-30T13:56:19.253Z,5296
2017-03-30T14:06:19.214Z,5928
2017-03-30T14:16:19.285Z,5968
2017-03-30T14:26:19.269Z,5740
2017-03-30T14:36:19.307Z,5424
2017-03-30T14:46:19.269Z,4996
2017-03-30T14:56:19.230Z,4836
2017-03-30T15:06:19.305Z,5208
2017-03-30T15:16:19.257Z,5724
2017-03-30T15:26:19.197Z,5476
2017-03-30T15:36:19.254Z,5156
2017-03-30T15:46:19.213Z,9500
2017-03-30T15:56:19.288Z,5952
2017-03-30T16:06:19.288Z,4112
2017-03-30T16:16:19.394Z,4020
2017-03-30T16:26:19.299Z,3176
2017-03-30T16:36:19.260Z,3256
2017-03-30T16:46:19.294Z,3260
2017-03-30T16:56:19.328Z,2884
2017-03-30T17:06:19.236Z,2784
2017-03-30T17:16:19.276Z,2328
2017-03-30T17:26:19.230Z,1720
2017-03-30T17:36:19.312Z,1056
2017-03-30T17:46:19.329Z,580
2017-03-30T17:56:19.227Z,220
2017-03-30T18:06:19.299Z,88
2017-03-30T18:16:21.155Z,24
2017-03-30T18:26:19.319Z,4
2017-03-30T18:36:19.304Z,0
2017-03-30T18:46:19.318Z,4
2017-03-30T18:56:19.599Z,4
2017-03-30T19:06:19.630Z,4
2017-03-30T19:16:24.822Z,0
2017-03-30T19:26:20.118Z,0
2017-03-30T19:36:19.317Z,0
2017-03-30T19:46:19.308Z,0
2017-03-30T19:56:19.305Z,4
2017-03-30T20:06:19.231Z,0
2017-03-30T20:16:19.337Z,0
2017-03-30T20:26:19.368Z,0
2017-03-30T20:36:19.233Z,0
2017-03-30T20:46:19.315Z,4
2017-03-30T20:56:19.271Z,0
2017-03-30T21:06:19.403Z,0
2017-03-30T21:16:19.310Z,0
2017-03-30T21:26:19.954Z,0
2017-03-30T21:36:19.318Z,4
2017-03-30T21:46:19.246Z,0
2017-03-30T21:56:19.218Z,0
2017-03-30T22:06:19.359Z,0
2017-03-30T22:16:19.271Z,0
2017-03-30T22:26:19.326Z,0
2017-03-30T22:36:19.344Z,0
2017-03-30T22:46:19.268Z,0
2017-03-30T22:56:19.236Z,0
2017-03-30T23:06:19.303Z,0
2017-03-30T23:16:19.280Z,0
2017-03-30T23:26:19.209Z,0
2017-03-30T23:36:19.317Z,0
2017-03-30T23:46:19.227Z,0
2017-03-30T23:56:19.306Z,0
